createdAt,value
2022-08-18T00:01:48.781Z,99483.13
2022-08-18T00:04:34.782Z,99479.81
2022-08-18T00:07:02.955Z,99478.75
2022-08-18T00:09:32.829Z,99487.97
2022-08-18T00:12:01.624Z,99481.88
2022-08-18T00:14:28.644Z,99480.31
2022-08-18T00:16:55.797Z,99474.53
2022-08-18T00:19:43.500Z,99471.72
2022-08-18T00:22:15.202Z,99462.50
2022-08-18T00:24:47.695Z,99471.56
2022-08-18T00:27:30.630Z,99468.41
2022-08-18T00:29:58.955Z,99460.78
2022-08-18T00:32:28.797Z,99457.34
2022-08-18T00:34:55.874Z,99457.97
2022-08-18T00:37:23.971Z,99460.59
2022-08-18T00:39:54.374Z,99450.78
2022-08-18T00:42:27.777Z,99455.31
2022-08-18T00:45:00.837Z,99453.75
2022-08-18T00:47:33.109Z,99460.59
2022-08-18T00:50:15.092Z,99468.72
2022-08-18T00:52:45.196Z,99473.03
2022-08-18T00:55:12.317Z,99486.03
2022-08-18T00:57:39.703Z,99487.41
2022-08-18T01:00:11.639Z,99496.00
2022-08-18T01:02:42.041Z,99495.22
2022-08-18T01:05:17.026Z,99497.06
2022-08-18T01:07:48.233Z,99499.25
2022-08-18T01:10:16.821Z,99495.50
2022-08-18T01:12:46.871Z,99500.34
2022-08-18T01:15:29.330Z,99503.00
2022-08-18T01:18:22.931Z,99500.63
2022-08-18T01:21:14.429Z,99498.88
2022-08-18T01:23:41.742Z,99503.44
2022-08-18T01:26:09.519Z,99502.94
2022-08-18T01:28:40.824Z,99511.69
2022-08-18T01:31:12.202Z,99513.88
2022-08-18T01:33:44.289Z,99513.09
2022-08-18T01:36:16.791Z,99511.53
2022-08-18T01:38:44.522Z,99507.59
2022-08-18T01:41:26.869Z,99507.13
2022-08-18T01:43:58.726Z,99515.69
2022-08-18T01:46:26.906Z,99510.19
2022-08-18T01:48:53.833Z,99513.66
2022-08-18T01:51:36.256Z,99518.47
2022-08-18T01:54:08.467Z,99515.31
2022-08-18T01:56:36.830Z,99510.03
2022-08-18T01:59:04.021Z,99508.50
2022-08-18T02:01:36.443Z,99502.41
2022-08-18T02:04:33.307Z,99501.72
2022-08-18T02:06:56.026Z,99511.06
2022-08-18T02:09:24.198Z,99505.78
2022-08-18T02:11:53.102Z,99508.13
2022-08-18T02:14:27.136Z,99507.19
2022-08-18T02:17:01.265Z,99505.91
2022-08-18T02:19:48.175Z,99503.84
2022-08-18T02:22:16.788Z,99499.34
2022-08-18T02:24:44.704Z,99499.34
2022-08-18T02:27:11.983Z,99494.66
2022-08-18T02:29:39.089Z,99493.09
2022-08-18T02:32:06.591Z,99494.78
2022-08-18T02:34:33.429Z,99491.16
2022-08-18T02:37:01.001Z,99490.59
2022-08-18T02:39:29.051Z,99488.03
2022-08-18T02:41:56.177Z,99482.72
2022-08-18T02:44:22.978Z,99483.34
2022-08-18T02:46:54.083Z,99484.75
2022-08-18T02:49:20.931Z,99474.94
2022-08-18T02:51:47.776Z,99477.88
2022-08-18T02:54:14.958Z,99480.81
2022-08-18T02:56:42.605Z,99469.66
2022-08-18T02:59:12.321Z,99467.38
2022-08-18T03:01:46.111Z,99471.00
2022-08-18T03:04:16.065Z,99475.66
2022-08-18T03:06:44.378Z,99465.16
2022-08-18T03:09:13.839Z,99467.56
2022-08-18T03:11:40.707Z,99473.47
2022-08-18T03:14:11.341Z,99473.44
2022-08-18T03:16:40.540Z,99471.06
2022-08-18T03:19:20.821Z,99474.72
2022-08-18T03:21:48.794Z,99472.47
2022-08-18T03:24:22.499Z,99474.63
2022-08-18T03:26:51.523Z,99475.53
2022-08-18T03:29:18.706Z,99479.47
2022-08-18T03:31:45.597Z,99485.81
2022-08-18T03:34:12.861Z,99481.13
2022-08-18T03:36:39.903Z,99492.69
2022-08-18T03:39:08.250Z,99481.44
2022-08-18T03:41:43.993Z,99472.88
2022-08-18T03:44:24.689Z,99472.31
2022-08-18T03:46:51.893Z,99476.03
2022-08-18T03:49:20.466Z,99478.97
2022-08-18T03:51:48.806Z,99476.31
2022-08-18T03:54:16.964Z,99487.41
2022-08-18T03:56:44.483Z,99482.44
2022-08-18T03:59:17.010Z,99475.03
2022-08-18T04:01:45.143Z,99475.91
2022-08-18T04:04:13.527Z,99465.44
2022-08-18T04:06:42.121Z,99465.31
2022-08-18T04:09:11.117Z,99467.97
2022-08-18T04:11:38.427Z,99466.09
2022-08-18T04:14:06.174Z,99474.97
2022-08-18T04:16:34.909Z,99470.97
2022-08-18T04:19:04.879Z,99481.59
2022-08-18T04:21:33.244Z,99476.28
2022-08-18T04:24:04.999Z,99479.63
2022-08-18T04:26:33.512Z,99477.44
2022-08-18T04:29:03.743Z,99487.31
2022-08-18T04:31:31.081Z,99489.66
2022-08-18T04:33:59.125Z,99495.44
2022-08-18T04:36:26.613Z,99505.59
2022-08-18T04:38:56.314Z,99516.22
2022-08-18T04:41:26.363Z,99507.53
2022-08-18T04:44:01.265Z,99513.44
2022-08-18T04:46:29.193Z,99519.44
2022-08-18T04:48:59.331Z,99517.09
2022-08-18T04:52:37.604Z,99512.91
2022-08-18T04:54:40.478Z,99516.00
2022-08-18T04:57:09.525Z,99533.84
2022-08-18T04:59:37.149Z,99525.91
2022-08-18T05:02:10.271Z,99524.88
2022-08-18T05:04:40.895Z,99530.19
2022-08-18T05:07:08.981Z,99528.19
2022-08-18T05:09:41.193Z,99523.97
2022-08-18T05:12:09.540Z,99516.75
2022-08-18T05:14:36.445Z,99520.22
2022-08-18T05:17:04.571Z,99510.28
2022-08-18T05:19:31.937Z,99503.72
2022-08-18T05:22:00.066Z,99510.00
2022-08-18T05:24:36.843Z,99510.75
2022-08-18T05:27:37.490Z,99515.94
2022-08-18T05:30:06.001Z,99512.97
2022-08-18T05:32:46.344Z,99523.38
2022-08-18T05:35:18.339Z,99529.72
2022-08-18T05:38:03.963Z,99533.47
2022-08-18T05:40:32.039Z,99528.69
2022-08-18T05:42:59.605Z,99520.19
2022-08-18T05:45:27.090Z,99520.22
2022-08-18T05:47:58.694Z,99520.97
2022-08-18T05:50:26.289Z,99531.41
2022-08-18T05:53:13.873Z,99542.06
2022-08-18T05:56:20.666Z,99536.91
2022-08-18T05:58:50.630Z,99554.84
2022-08-18T06:01:20.568Z,99548.25
2022-08-18T06:03:50.110Z,99543.69
2022-08-18T06:06:19.565Z,99548.56
2022-08-18T06:08:55.887Z,99547.34
2022-08-18T06:11:23.108Z,99537.56
2022-08-18T06:13:57.790Z,99554.72
2022-08-18T06:16:38.876Z,99552.56
2022-08-18T06:19:27.546Z,99545.59
2022-08-18T06:21:54.368Z,99546.34
2022-08-18T06:24:37.129Z,99541.75
2022-08-18T06:27:15.092Z,99546.25
2022-08-18T06:29:47.604Z,99541.59
2022-08-18T06:32:34.796Z,99545.44
2022-08-18T06:35:12.830Z,99551.03
2022-08-18T06:38:03.399Z,99564.53
2022-08-18T06:40:30.767Z,99556.63
2022-08-18T06:42:59.871Z,99570.63
2022-08-18T06:45:36.555Z,99571.75
2022-08-18T06:48:15.564Z,99587.03
2022-08-18T06:50:48.954Z,99585.13
2022-08-18T06:53:27.013Z,99583.84
2022-08-18T06:55:56.418Z,99584.81
2022-08-18T06:58:30.858Z,99587.09
2022-08-18T07:01:02.489Z,99583.34
2022-08-18T07:03:36.178Z,99580.50
2022-08-18T07:06:21.601Z,99577.47
2022-08-18T07:08:50.431Z,99585.16
2022-08-18T07:11:21.545Z,99575.22
2022-08-18T07:14:09.391Z,99578.53
2022-08-18T07:16:57.813Z,99588.03
2022-08-18T07:19:28.195Z,99581.44
2022-08-18T07:22:05.108Z,99584.56
2022-08-18T07:24:33.831Z,99585.19
2022-08-18T07:27:09.823Z,99589.88
2022-08-18T07:29:39.161Z,99588.53
2022-08-18T07:32:21.588Z,99574.72
2022-08-18T07:34:53.299Z,99577.75
2022-08-18T07:37:28.909Z,99580.94
2022-08-18T07:39:59.234Z,99590.03
2022-08-18T07:42:37.235Z,99582.03
2022-08-18T07:45:25.260Z,99578.91
2022-08-18T07:47:55.107Z,99585.56
2022-08-18T07:50:55.155Z,99579.81
2022-08-18T07:53:26.484Z,99583.22
2022-08-18T07:55:58.831Z,99588.53
2022-08-18T07:58:38.110Z,99585.66
2022-08-18T08:01:11.385Z,99586.53
2022-08-18T08:03:52.696Z,99584.34
2022-08-18T08:06:28.767Z,99585.81
2022-08-18T08:09:07.809Z,99584.97
2022-08-18T08:11:37.620Z,99593.09
2022-08-18T08:14:26.602Z,99592.44
2022-08-18T08:16:56.516Z,99592.50
2022-08-18T08:20:00.121Z,99591.69
2022-08-18T08:22:47.478Z,99598.25
2022-08-18T08:25:44.505Z,99598.25
2022-08-18T08:28:07.747Z,99598.53
2022-08-18T08:31:05.118Z,99587.00
2022-08-18T08:33:49.565Z,99585.09
2022-08-18T08:36:23.255Z,99568.63
2022-08-18T08:38:54.529Z,99563.19
2022-08-18T08:41:31.533Z,99575.19
2022-08-18T08:44:18.042Z,99570.91
2022-08-18T08:47:05.325Z,99569.44
2022-08-18T08:49:35.657Z,99574.09
2022-08-18T08:52:09.924Z,99585.25
2022-08-18T08:54:42.906Z,99574.84
2022-08-18T08:57:13.313Z,99567.16
2022-08-18T08:59:40.846Z,99563.38
2022-08-18T09:02:37.658Z,99561.78
2022-08-18T09:05:17.390Z,99561.72
2022-08-18T09:08:03.182Z,99552.13
2022-08-18T09:10:51.482Z,99546.41
2022-08-18T09:13:38.690Z,99536.44
2022-08-18T09:16:13.897Z,99537.84
2022-08-18T09:18:43.653Z,99530.13
2022-08-18T09:21:16.047Z,99519.41
2022-08-18T09:23:45.420Z,99518.22
2022-08-18T09:26:27.803Z,99503.22
2022-08-18T09:28:59.086Z,99500.84
2022-08-18T09:31:27.757Z,99493.88
2022-08-18T09:34:10.934Z,99490.09
2022-08-18T09:36:44.116Z,99496.28
2022-08-18T09:39:29.784Z,99489.50
2022-08-18T09:42:09.385Z,99485.22
2022-08-18T09:44:50.685Z,99470.69
2022-08-18T09:47:30.460Z,99482.97
2022-08-18T09:49:58.323Z,99468.34
2022-08-18T09:55:23.943Z,99469.69
2022-08-18T09:58:13.489Z,99472.47
2022-08-18T10:00:40.799Z,99469.09
2022-08-18T10:03:12.787Z,99472.97
2022-08-18T10:05:40.422Z,99469.06
2022-08-18T10:08:09.127Z,99468.13
2022-08-18T10:11:00.017Z,99479.19
2022-08-18T10:13:33.356Z,99487.16
2022-08-18T10:16:15.847Z,99484.69
2022-08-18T10:18:47.378Z,99493.81
2022-08-18T10:21:22.792Z,99489.13
2022-08-18T10:26:54.026Z,99490.00
2022-08-18T10:29:28.708Z,99481.56
2022-08-18T10:31:55.855Z,99473.16
2022-08-18T10:34:52.498Z,99479.38
2022-08-18T10:37:26.181Z,99475.47
2022-08-18T10:39:55.995Z,99469.69
2022-08-18T10:42:31.325Z,99475.75
2022-08-18T10:45:12.244Z,99473.88
2022-08-18T10:47:42.991Z,99470.66
2022-08-18T10:50:22.557Z,99462.09
2022-08-18T10:53:35.410Z,99448.94
2022-08-18T10:56:05.151Z,99454.00
2022-08-18T10:58:59.853Z,99449.38
2022-08-18T11:01:33.351Z,99454.03
2022-08-18T11:04:22.586Z,99446.81
2022-08-18T11:07:09.750Z,99448.41
2022-08-18T11:12:45.539Z,99449.63
2022-08-18T11:15:26.952Z,99441.66
2022-08-18T11:18:11.577Z,99443.22
2022-08-18T11:23:27.800Z,99427.09
2022-08-18T11:25:54.704Z,99425.13
2022-08-18T11:28:30.172Z,99429.78
2022-08-18T11:30:59.417Z,99419.06
2022-08-18T11:33:27.793Z,99434.78
2022-08-18T11:35:58.484Z,99437.09
2022-08-18T11:38:29.597Z,99431.44
2022-08-18T11:41:13.309Z,99434.19
2022-08-18T11:43:43.176Z,99422.66
2022-08-18T11:46:16.911Z,99428.13
2022-08-18T11:48:51.861Z,99434.31
2022-08-18T11:51:23.371Z,99435.81
2022-08-18T11:53:59.237Z,99426.16
2022-08-18T11:56:31.306Z,99415.75
2022-08-18T11:58:59.353Z,99405.00
2022-08-18T12:01:37.466Z,99390.31
2022-08-18T12:04:14.663Z,99388.72
2022-08-18T12:06:52.337Z,99395.63
2022-08-18T12:10:04.447Z,99393.31
2022-08-18T12:12:28.202Z,99394.84
2022-08-18T12:15:07.935Z,99396.00
2022-08-18T12:17:41.881Z,99388.03
2022-08-18T12:20:11.830Z,99381.19
2022-08-18T12:22:40.536Z,99394.63
2022-08-18T12:25:10.657Z,99390.78
2022-08-18T12:27:41.725Z,99392.72
2022-08-18T12:30:16.568Z,99392.72
2022-08-18T12:32:50.875Z,99400.03
2022-08-18T12:35:31.119Z,99409.63
2022-08-18T12:38:03.324Z,99403.56
2022-08-18T12:40:38.374Z,99395.91
2022-08-18T12:43:06.135Z,99396.34
2022-08-18T12:45:33.828Z,99400.50
2022-08-18T12:48:04.057Z,99383.97
2022-08-18T12:50:36.234Z,99386.28
2022-08-18T12:53:06.417Z,99383.59
2022-08-18T12:55:43.682Z,99375.97
2022-08-18T12:58:12.378Z,99384.44
2022-08-18T13:00:41.041Z,99364.50
2022-08-18T13:03:08.538Z,99360.31
2022-08-18T13:05:37.390Z,99362.22
2022-08-18T13:08:05.841Z,99356.81
2022-08-18T13:10:45.446Z,99367.53
2022-08-18T13:13:18.620Z,99362.53
2022-08-18T13:15:58.371Z,99367.50
2022-08-18T13:18:27.383Z,99360.59
2022-08-18T13:20:58.281Z,99358.34
2022-08-18T13:23:27.460Z,99359.88
2022-08-18T13:26:01.219Z,99349.84
2022-08-18T13:28:30.609Z,99353.72
2022-08-18T13:30:59.041Z,99354.47
2022-08-18T13:33:35.352Z,99363.72
2022-08-18T13:36:13.152Z,99363.75
2022-08-18T13:38:43.391Z,99369.19
2022-08-18T13:41:15.648Z,99359.22
2022-08-18T13:43:44.696Z,99361.56
2022-08-18T13:46:17.308Z,99357.75
2022-08-18T13:48:46.093Z,99358.09
2022-08-18T13:51:17.979Z,99358.47
2022-08-18T13:53:57.508Z,99352.69
2022-08-18T13:56:31.932Z,99360.00
2022-08-18T13:58:59.284Z,99359.25
2022-08-18T14:01:44.761Z,99376.50
2022-08-18T14:04:15.053Z,99368.44
2022-08-18T14:06:51.310Z,99375.72
2022-08-18T14:09:35.783Z,99367.72
2022-08-18T14:12:16.084Z,99373.47
2022-08-18T14:14:52.540Z,99373.09
2022-08-18T14:17:20.381Z,99385.00
2022-08-18T14:20:10.349Z,99386.56
2022-08-18T14:22:56.752Z,99381.16
2022-08-18T14:25:41.959Z,99384.66
2022-08-18T14:28:11.850Z,99373.50
2022-08-18T14:30:39.431Z,99377.38
2022-08-18T14:33:07.812Z,99370.41
2022-08-18T14:36:06.292Z,99363.13
2022-08-18T14:38:25.779Z,99360.06
2022-08-18T14:40:53.221Z,99352.78
2022-08-18T14:43:24.890Z,99353.16
2022-08-18T14:45:53.752Z,99360.06
2022-08-18T14:48:27.541Z,99351.25
2022-08-18T14:50:55.582Z,99351.63
2022-08-18T14:53:23.915Z,99362.00
2022-08-18T14:55:52.674Z,99375.44
2022-08-18T14:58:20.905Z,99380.84
2022-08-18T15:00:53.352Z,99400.06
2022-08-18T15:03:22.224Z,99396.97
2022-08-18T15:05:59.225Z,99399.28
2022-08-18T15:08:26.942Z,99399.28
2022-08-18T15:10:55.456Z,99391.94
2022-08-18T15:13:26.551Z,99394.63
2022-08-18T15:15:55.939Z,99387.69
2022-08-18T15:18:29.557Z,99384.22
2022-08-18T15:21:19.473Z,99384.63
2022-08-18T15:24:20.697Z,99395.00
2022-08-18T15:26:51.760Z,99391.53
2022-08-18T15:29:27.997Z,99375.44
2022-08-18T15:32:22.488Z,99378.88
2022-08-18T15:34:51.453Z,99379.25
2022-08-18T15:37:20.091Z,99373.81
2022-08-18T15:39:55.623Z,99392.63
2022-08-18T15:42:23.680Z,99390.28
2022-08-18T15:44:52.752Z,99399.09
2022-08-18T15:47:21.321Z,99388.28
2022-08-18T15:49:48.605Z,99381.38
2022-08-18T15:52:17.838Z,99379.81
2022-08-18T15:54:48.004Z,99361.72
2022-08-18T15:57:39.604Z,99350.56
2022-08-18T16:00:06.196Z,99346.72
2022-08-18T16:02:39.979Z,99342.09
2022-08-18T16:05:10.261Z,99351.28
2022-08-18T16:07:41.222Z,99352.81
2022-08-18T16:10:12.680Z,99348.19
2022-08-18T16:12:43.978Z,99341.25
2022-08-18T16:15:19.170Z,99323.22
2022-08-18T16:17:49.940Z,99303.59
2022-08-18T16:20:18.790Z,99321.63
2022-08-18T16:22:46.198Z,99315.03
2022-08-18T16:25:13.742Z,99298.53
2022-08-18T16:27:43.483Z,99296.59
2022-08-18T16:30:11.614Z,99286.56
2022-08-18T16:32:38.924Z,99275.81
2022-08-18T16:35:06.536Z,99282.31
2022-08-18T16:37:33.615Z,99265.78
2022-08-18T16:40:01.120Z,99258.81
2022-08-18T16:42:32.736Z,99261.84
2022-08-18T16:45:00.094Z,99261.06
2022-08-18T16:47:27.672Z,99259.47
2022-08-18T16:52:45.317Z,99264.00
2022-08-18T16:55:12.681Z,99256.72
2022-08-18T16:57:59.772Z,99250.91
2022-08-18T17:00:45.772Z,99260.50
2022-08-18T17:03:38.304Z,99257.81
2022-08-18T17:06:14.044Z,99265.41
2022-08-18T17:08:41.533Z,99271.91
2022-08-18T17:11:10.942Z,99268.38
2022-08-18T17:13:39.652Z,99265.31
2022-08-18T17:16:07.413Z,99266.78
2022-08-18T17:18:36.146Z,99269.00
2022-08-18T17:21:03.913Z,99292.63
2022-08-18T17:23:31.170Z,99305.53
2022-08-18T17:25:58.907Z,99302.38
2022-08-18T17:28:31.394Z,99298.44
2022-08-18T17:31:02.289Z,99294.53
2022-08-18T17:33:31.621Z,99301.72
2022-08-18T17:36:00.896Z,99294.41
2022-08-18T17:38:58.536Z,99288.56
2022-08-18T17:41:25.969Z,99287.31
2022-08-18T17:43:55.236Z,99287.25
2022-08-18T17:46:27.791Z,99284.19
2022-08-18T17:49:03.502Z,99288.72
2022-08-18T17:51:44.552Z,99299.44
2022-08-18T17:54:23.455Z,99288.63
2022-08-18T17:56:53.086Z,99290.03
2022-08-18T17:59:42.972Z,99280.03
2022-08-18T18:02:18.313Z,99280.66
2022-08-18T18:04:58.303Z,99274.06
2022-08-18T18:07:33.897Z,99269.00
2022-08-18T18:10:08.982Z,99265.06
2022-08-18T18:12:37.489Z,99262.72
2022-08-18T18:15:07.173Z,99261.13
2022-08-18T18:17:37.858Z,99258.69
2022-08-18T18:20:23.996Z,99260.09
2022-08-18T18:22:51.666Z,99258.78
2022-08-18T18:25:34.393Z,99263.25
2022-08-18T18:28:01.733Z,99260.03
2022-08-18T18:30:32.882Z,99254.53
2022-08-18T18:33:14.428Z,99251.75
2022-08-18T18:35:54.561Z,99256.19
2022-08-18T18:38:25.301Z,99251.03
2022-08-18T18:41:16.739Z,99249.72
2022-08-18T18:43:47.453Z,99243.44
2022-08-18T18:46:33.104Z,99248.31
2022-08-18T18:49:06.014Z,99252.41
2022-08-18T18:51:45.414Z,99258.78
2022-08-18T18:54:12.168Z,99251.75
2022-08-18T18:56:43.364Z,99255.13
2022-08-18T18:59:22.662Z,99244.31
2022-08-18T19:01:58.862Z,99246.53
2022-08-18T19:04:32.261Z,99248.78
2022-08-18T19:07:05.302Z,99242.56
2022-08-18T19:09:50.452Z,99226.38
2022-08-18T19:12:20.594Z,99230.03
2022-08-18T19:14:59.492Z,99232.53
2022-08-18T19:17:33.629Z,99224.81
2022-08-18T19:20:13.109Z,99225.81
2022-08-18T19:22:49.433Z,99223.31
2022-08-18T19:25:33.744Z,99222.81
2022-08-18T19:28:19.727Z,99226.78
2022-08-18T19:30:49.176Z,99241.84
2022-08-18T19:33:43.505Z,99246.69
2022-08-18T19:36:21.100Z,99244.97
2022-08-18T19:38:54.273Z,99246.31
2022-08-18T19:41:40.791Z,99251.16
2022-08-18T19:44:29.278Z,99247.16
2022-08-18T19:47:05.520Z,99243.22
2022-08-18T19:49:36.303Z,99239.28
2022-08-18T19:52:45.297Z,99250.63
2022-08-18T19:55:27.541Z,99249.44
2022-08-18T19:58:01.490Z,99248.25
2022-08-18T20:00:44.726Z,99254.91
2022-08-18T20:03:31.761Z,99255.50
2022-08-18T20:05:58.874Z,99248.19
2022-08-18T20:08:51.813Z,99253.88
2022-08-18T20:11:18.975Z,99241.88
2022-08-18T20:13:46.365Z,99240.31
2022-08-18T20:16:24.433Z,99237.66
2022-08-18T20:18:57.350Z,99236.81
2022-08-18T20:21:30.780Z,99239.03
2022-08-18T20:24:35.656Z,99247.69
2022-08-18T20:27:35.925Z,99251.72
2022-08-18T20:30:03.341Z,99249.72
2022-08-18T20:32:35.735Z,99262.06
2022-08-18T20:35:38.428Z,99260.22
2022-08-18T20:38:24.114Z,99269.88
2022-08-18T20:40:51.445Z,99270.53
2022-08-18T20:43:27.578Z,99273.53
2022-08-18T20:46:11.803Z,99287.97
2022-08-18T20:49:06.114Z,99296.50
2022-08-18T20:51:52.136Z,99308.13
2022-08-18T20:54:31.280Z,99315.69
2022-08-18T20:57:00.294Z,99325.03
2022-08-18T20:59:38.983Z,99332.09
2022-08-18T21:02:08.216Z,99333.44
2022-08-18T21:04:48.620Z,99332.44
2022-08-18T21:07:17.372Z,99342.50
2022-08-18T21:09:49.869Z,99348.03
2022-08-18T21:12:22.071Z,99337.63
2022-08-18T21:14:54.445Z,99332.94
2022-08-18T21:17:23.419Z,99337.13
2022-08-18T21:19:50.360Z,99341.72
2022-08-18T21:22:19.529Z,99344.25
2022-08-18T21:24:50.238Z,99349.47
2022-08-18T21:27:20.289Z,99348.88
2022-08-18T21:29:49.552Z,99358.19
2022-08-18T21:32:21.869Z,99359.59
2022-08-18T21:34:49.225Z,99353.69
2022-08-18T21:37:18.241Z,99353.56
2022-08-18T21:39:49.582Z,99348.56
2022-08-18T21:42:18.328Z,99350.00
2022-08-18T21:44:46.482Z,99341.25
2022-08-18T21:47:20.596Z,99353.44
2022-08-18T21:50:02.574Z,99351.56
2022-08-18T21:52:30.726Z,99348.13
2022-08-18T21:55:02.316Z,99337.47
2022-08-18T21:57:47.919Z,99350.78
2022-08-18T22:00:19.352Z,99364.06
2022-08-18T22:03:10.916Z,99352.34
2022-08-18T22:05:58.962Z,99350.78
2022-08-18T22:08:28.153Z,99343.47
2022-08-18T22:11:41.858Z,99354.09
2022-08-18T22:14:15.902Z,99347.56
2022-08-18T22:16:44.920Z,99343.34
2022-08-18T22:19:14.534Z,99342.88
2022-08-18T22:21:49.321Z,99337.91
2022-08-18T22:24:21.841Z,99332.09
2022-08-18T22:26:50.865Z,99334.00
2022-08-18T22:29:20.972Z,99339.19
2022-08-18T22:31:50.476Z,99350.78
2022-08-18T22:34:28.252Z,99356.13
2022-08-18T22:36:59.949Z,99354.13
2022-08-18T22:39:33.781Z,99351.31
2022-08-18T22:42:00.706Z,99357.28
2022-08-18T22:44:28.012Z,99353.72
2022-08-18T22:46:54.889Z,99363.41
2022-08-18T22:49:22.238Z,99375.47
2022-08-18T22:51:50.501Z,99372.38
2022-08-18T22:54:18.476Z,99363.34
2022-08-18T22:56:53.869Z,99379.75
2022-08-18T22:59:26.817Z,99379.75
2022-08-18T23:01:54.770Z,99380.84
2022-08-18T23:04:22.854Z,99388.34
2022-08-18T23:06:53.692Z,99387.13
2022-08-18T23:09:29.180Z,99381.69
2022-08-18T23:12:01.102Z,99377.94
2022-08-18T23:14:29.008Z,99371.69
2022-08-18T23:16:55.837Z,99369.22
2022-08-18T23:19:22.940Z,99369.38
2022-08-18T23:21:51.749Z,99371.59
2022-08-18T23:24:20.440Z,99370.50
2022-08-18T23:26:49.360Z,99371.78
2022-08-18T23:29:16.837Z,99380.38
2022-08-18T23:31:44.728Z,99378.81
2022-08-18T23:34:13.454Z,99383.66
2022-08-18T23:36:45.152Z,99377.91
2022-08-18T23:39:13.676Z,99379.66
2022-08-18T23:41:40.591Z,99373.88
2022-08-18T23:44:07.486Z,99376.53
2022-08-18T23:46:34.943Z,99378.09
2022-08-18T23:49:02.887Z,99369.81
2022-08-18T23:51:31.572Z,99373.56
2022-08-18T23:54:00.408Z,99368.06
2022-08-18T23:56:28.363Z,99385.31
2022-08-18T23:58:57.032Z,99377.38
